createdAt,value
2022-11-12T00:01:57.206Z,4.20
2022-11-12T00:04:42.787Z,5.10
2022-11-12T00:07:29.408Z,5.13
2022-11-12T00:10:14.670Z,4.35
2022-11-12T00:13:00.013Z,5.10
2022-11-12T00:15:47.332Z,4.32
2022-11-12T00:18:32.382Z,4.85
2022-11-12T00:21:17.812Z,4.25
2022-11-12T00:24:03.193Z,5.20
2022-11-12T00:26:48.715Z,4.85
2022-11-12T00:29:34.226Z,4.90
2022-11-12T00:32:20.091Z,4.55
2022-11-12T00:35:08.716Z,4.57
2022-11-12T00:37:57.077Z,4.78
2022-11-12T00:40:42.778Z,4.60
2022-11-12T00:43:28.684Z,4.03
2022-11-12T00:46:14.135Z,4.18
2022-11-12T00:48:59.668Z,4.10
2022-11-12T00:51:44.864Z,3.60
2022-11-12T00:54:30.118Z,4.82
2022-11-12T00:57:15.471Z,4.10
2022-11-12T01:00:00.796Z,3.78
2022-11-12T01:02:50.680Z,3.95
2022-11-12T01:05:36.437Z,3.90
2022-11-12T01:08:21.863Z,3.72
2022-11-12T01:11:16.085Z,3.25
2022-11-12T01:14:11.166Z,3.83
2022-11-12T01:16:56.232Z,3.80
2022-11-12T01:19:41.626Z,3.45
2022-11-12T01:22:25.068Z,4.22
2022-11-12T01:25:10.240Z,3.90
2022-11-12T01:27:55.509Z,4.20
2022-11-12T01:30:40.822Z,3.90
2022-11-12T01:33:26.347Z,3.65
2022-11-12T01:36:13.548Z,3.63
2022-11-12T01:38:58.988Z,4.00
2022-11-12T01:41:44.442Z,3.88
2022-11-12T01:44:35.586Z,3.58
2022-11-12T01:47:39.169Z,3.95
2022-11-12T01:50:33.509Z,4.18
2022-11-12T01:53:22.523Z,3.97
2022-11-12T01:56:08.416Z,3.75
2022-11-12T01:59:02.248Z,3.83
2022-11-12T02:01:47.651Z,4.25
2022-11-12T02:04:34.577Z,4.18
2022-11-12T02:07:22.345Z,3.63
2022-11-12T02:10:09.573Z,4.15
2022-11-12T02:13:13.508Z,3.95
2022-11-12T02:15:58.858Z,4.00
2022-11-12T02:18:44.335Z,4.38
2022-11-12T02:21:30.205Z,3.85
2022-11-12T02:24:15.311Z,4.15
2022-11-12T02:27:01.134Z,3.75
2022-11-12T02:29:46.640Z,4.00
2022-11-12T02:32:32.233Z,3.80
2022-11-12T02:35:17.682Z,4.00
2022-11-12T02:38:03.969Z,4.05
2022-11-12T02:40:49.254Z,4.32
2022-11-12T02:43:34.578Z,4.55
2022-11-12T02:46:20.092Z,3.90
2022-11-12T02:49:05.485Z,3.97
2022-11-12T02:51:50.851Z,3.80
2022-11-12T02:54:36.375Z,3.97
2022-11-12T02:57:21.796Z,4.20
2022-11-12T03:00:10.742Z,3.92
2022-11-12T03:05:46.160Z,3.85
2022-11-12T03:08:31.395Z,3.83
2022-11-12T03:11:17.483Z,3.70
2022-11-12T03:14:02.986Z,3.42
2022-11-12T03:16:48.315Z,4.13
2022-11-12T03:19:33.793Z,3.65
2022-11-12T03:22:19.261Z,3.92
2022-11-12T03:25:05.643Z,3.50
2022-11-12T03:28:00.674Z,3.13
2022-11-12T03:30:46.192Z,3.30
2022-11-12T03:33:31.485Z,3.42
2022-11-12T03:36:16.896Z,3.13
2022-11-12T03:39:02.366Z,4.10
2022-11-12T03:41:47.771Z,3.60
2022-11-12T03:44:33.165Z,4.05
2022-11-12T03:47:18.641Z,4.68
2022-11-12T03:50:04.255Z,4.40
2022-11-12T03:52:52.931Z,3.70
2022-11-12T03:55:38.220Z,3.70
2022-11-12T03:58:23.741Z,3.97
2022-11-12T04:01:09.599Z,3.92
2022-11-12T04:03:54.959Z,3.75
2022-11-12T04:06:58.720Z,3.70
2022-11-12T04:09:44.152Z,3.63
2022-11-12T04:12:48.189Z,4.15
2022-11-12T04:15:33.649Z,3.65
2022-11-12T04:18:37.440Z,3.42
2022-11-12T04:21:56.281Z,3.53
2022-11-12T04:25:01.287Z,3.35
2022-11-12T04:27:46.752Z,3.85
2022-11-12T04:30:32.254Z,3.22
2022-11-12T04:33:17.646Z,3.70
2022-11-12T04:36:03.228Z,3.78
2022-11-12T04:38:48.743Z,3.55
2022-11-12T04:41:52.637Z,3.72
2022-11-12T04:44:56.716Z,3.13
2022-11-12T04:47:46.277Z,3.50
2022-11-12T04:50:31.927Z,3.42
2022-11-12T04:53:17.261Z,3.95
2022-11-12T04:56:02.869Z,3.78
2022-11-12T04:58:48.458Z,3.95
2022-11-12T05:01:33.983Z,4.25
2022-11-12T05:04:19.509Z,4.00
2022-11-12T05:07:05.290Z,4.55
2022-11-12T05:09:50.366Z,3.85
2022-11-12T05:12:36.288Z,3.92
2022-11-12T05:15:21.557Z,3.75
2022-11-12T05:18:07.038Z,3.40
2022-11-12T05:20:53.765Z,3.90
2022-11-12T05:23:38.952Z,4.30
2022-11-12T05:26:24.357Z,3.17
2022-11-12T05:29:09.854Z,3.58
2022-11-12T05:31:55.678Z,4.22
2022-11-12T05:34:41.148Z,4.05
2022-11-12T05:37:26.172Z,4.03
2022-11-12T05:40:12.061Z,4.03
2022-11-12T05:42:57.441Z,3.80
2022-11-12T05:45:43.754Z,3.88
2022-11-12T05:48:29.160Z,9.45
2022-11-12T05:51:14.728Z,4.63
2022-11-12T05:54:00.659Z,3.30
2022-11-12T05:56:46.102Z,3.78
2022-11-12T05:59:31.577Z,4.00
2022-11-12T06:02:17.088Z,3.67
2022-11-12T06:05:02.312Z,3.97
2022-11-12T06:07:47.596Z,3.97
2022-11-12T06:10:33.365Z,3.78
2022-11-12T06:13:19.746Z,4.30
2022-11-12T06:16:05.496Z,3.70
2022-11-12T06:18:50.791Z,3.95
2022-11-12T06:21:36.256Z,3.45
2022-11-12T06:24:22.223Z,4.55
2022-11-12T06:27:07.641Z,4.60
2022-11-12T06:29:53.321Z,4.88
2022-11-12T06:32:38.564Z,4.40
2022-11-12T06:35:23.871Z,4.63
2022-11-12T06:38:09.296Z,4.93
2022-11-12T06:40:54.927Z,5.13
2022-11-12T06:43:41.152Z,5.60
2022-11-12T06:46:26.244Z,4.97
2022-11-12T06:49:11.601Z,4.82
2022-11-12T06:51:57.273Z,5.90
2022-11-12T06:54:42.562Z,5.47
2022-11-12T06:57:27.886Z,4.75
2022-11-12T07:00:13.837Z,4.90
2022-11-12T07:02:59.259Z,5.05
2022-11-12T07:05:44.708Z,4.57
2022-11-12T07:08:30.208Z,5.32
2022-11-12T07:11:16.131Z,6.47
2022-11-12T07:14:01.633Z,6.32
2022-11-12T07:16:46.879Z,7.07
2022-11-12T07:19:32.253Z,6.07
2022-11-12T07:23:36.748Z,6.00
2022-11-12T07:26:24.377Z,5.07
2022-11-12T07:29:09.856Z,3.63
2022-11-12T07:31:55.224Z,5.45
2022-11-12T07:34:40.545Z,5.85
2022-11-12T07:37:26.109Z,5.18
2022-11-12T07:40:11.830Z,5.65
2022-11-12T07:42:59.163Z,6.85
2022-11-12T07:45:44.263Z,6.10
2022-11-12T07:48:30.692Z,6.93
2022-11-12T07:51:19.423Z,7.95
2022-11-12T07:54:04.644Z,7.40
2022-11-12T07:56:49.931Z,7.65
2022-11-12T07:59:35.485Z,6.78
2022-11-12T08:02:20.899Z,6.28
2022-11-12T08:05:13.578Z,6.50
2022-11-12T08:08:01.999Z,5.90
2022-11-12T08:10:47.208Z,6.47
2022-11-12T08:13:32.520Z,6.30
2022-11-12T08:16:18.456Z,6.63
2022-11-12T08:19:03.546Z,5.38
2022-11-12T08:21:48.985Z,5.00
2022-11-12T08:24:34.450Z,4.80
2022-11-12T08:27:19.684Z,4.45
2022-11-12T08:30:05.813Z,4.85
2022-11-12T08:32:58.016Z,4.68
2022-11-12T08:35:43.483Z,4.95
2022-11-12T08:38:29.266Z,4.75
2022-11-12T08:41:16.263Z,4.38
2022-11-12T08:44:07.166Z,4.53
2022-11-12T08:46:53.382Z,4.55
2022-11-12T08:49:41.482Z,4.35
2022-11-12T08:52:30.453Z,4.30
2022-11-12T08:55:15.934Z,4.53
2022-11-12T08:58:04.784Z,5.13
2022-11-12T09:03:36.621Z,4.38
2022-11-12T09:06:21.912Z,3.88
2022-11-12T09:09:07.351Z,3.80
2022-11-12T09:11:52.551Z,4.13
2022-11-12T09:14:38.011Z,4.82
2022-11-12T09:17:23.346Z,4.68
2022-11-12T09:20:09.175Z,5.13
2022-11-12T09:23:02.412Z,5.05
2022-11-12T09:25:47.799Z,5.05
2022-11-12T09:28:33.430Z,4.63
2022-11-12T09:31:18.719Z,4.38
2022-11-12T09:34:05.055Z,3.75
2022-11-12T09:36:50.129Z,4.05
2022-11-12T09:39:35.612Z,4.28
2022-11-12T09:42:22.841Z,4.30
2022-11-12T09:45:31.154Z,4.28
2022-11-12T09:48:34.740Z,4.18
2022-11-12T09:51:30.421Z,4.15
2022-11-12T09:54:28.452Z,4.32
2022-11-12T09:57:13.846Z,5.07
2022-11-12T09:59:59.222Z,3.90
2022-11-12T10:03:11.902Z,4.05
2022-11-12T10:06:20.685Z,4.55
2022-11-12T10:09:19.713Z,3.50
2022-11-12T10:12:42.561Z,4.30
2022-11-12T10:16:05.303Z,3.30
2022-11-12T10:19:09.176Z,4.00
2022-11-12T10:22:43.321Z,4.10
2022-11-12T10:25:29.205Z,4.65
2022-11-12T10:28:26.846Z,4.50
2022-11-12T10:31:15.309Z,3.67
2022-11-12T10:37:04.453Z,3.38
2022-11-12T10:39:50.261Z,3.75
2022-11-12T10:42:35.655Z,5.05
2022-11-12T10:45:22.774Z,17.98
2022-11-12T10:48:27.197Z,5.65
2022-11-12T10:51:24.272Z,3.40
2022-11-12T10:54:28.376Z,3.60
2022-11-12T10:57:24.135Z,3.83
2022-11-12T11:00:12.756Z,3.15
2022-11-12T11:05:46.573Z,3.72
2022-11-12T11:08:47.073Z,3.20
2022-11-12T11:11:32.269Z,4.07
2022-11-12T11:14:25.936Z,4.30
2022-11-12T11:17:17.456Z,5.43
2022-11-12T11:20:05.117Z,4.70
2022-11-12T11:22:56.824Z,3.50
2022-11-12T11:25:43.493Z,8.10
2022-11-12T11:28:51.577Z,4.03
2022-11-12T11:31:55.457Z,5.15
2022-11-12T11:35:05.412Z,3.28
2022-11-12T11:38:15.368Z,2.70
2022-11-12T11:44:22.148Z,3.08
2022-11-12T11:47:38.880Z,3.78
2022-11-12T11:50:39.864Z,3.55
2022-11-12T11:53:37.604Z,2.97
2022-11-12T11:56:36.588Z,3.10
2022-11-12T11:59:39.722Z,3.33
2022-11-12T12:02:36.926Z,3.42
2022-11-12T12:05:40.873Z,3.53
2022-11-12T12:08:34.070Z,3.63
2022-11-12T12:11:48.003Z,3.22
2022-11-12T12:14:57.472Z,3.58
2022-11-12T12:17:51.055Z,3.10
2022-11-12T12:21:08.449Z,3.33
2022-11-12T12:23:57.798Z,3.10
2022-11-12T12:26:48.547Z,2.97
2022-11-12T12:29:47.594Z,2.20
2022-11-12T12:32:41.001Z,2.60
2022-11-12T12:35:44.421Z,2.47
2022-11-12T12:38:52.296Z,2.75
2022-11-12T12:41:52.648Z,3.20
2022-11-12T12:45:01.360Z,3.28
2022-11-12T12:47:48.305Z,3.40
2022-11-12T12:50:38.344Z,3.90
2022-11-12T12:53:29.860Z,4.30
2022-11-12T12:56:15.259Z,3.65
2022-11-12T12:59:03.727Z,4.63
2022-11-12T13:02:19.736Z,4.50
2022-11-12T13:05:06.132Z,3.70
2022-11-12T13:07:52.239Z,3.67
2022-11-12T13:10:41.234Z,3.63
2022-11-12T13:13:35.610Z,3.05
2022-11-12T13:16:51.531Z,3.33
2022-11-12T13:19:45.203Z,3.90
2022-11-12T13:26:39.187Z,3.97
2022-11-12T13:29:45.407Z,3.80
2022-11-12T13:32:41.885Z,3.95
2022-11-12T13:35:30.469Z,3.55
2022-11-12T13:38:15.827Z,3.28
2022-11-12T13:41:03.892Z,3.92
2022-11-12T13:43:49.651Z,4.05
2022-11-12T13:46:35.062Z,3.50
2022-11-12T13:49:20.730Z,3.47
2022-11-12T13:52:06.281Z,3.60
2022-11-12T13:55:18.963Z,3.33
2022-11-12T13:58:03.982Z,3.65
2022-11-12T14:00:58.114Z,3.70
2022-11-12T14:03:49.552Z,3.63
2022-11-12T14:06:37.464Z,3.25
2022-11-12T14:09:44.317Z,3.35
2022-11-12T14:12:49.395Z,3.63
2022-11-12T14:16:18.022Z,3.60
2022-11-12T14:19:25.415Z,3.63
2022-11-12T14:22:19.196Z,3.58
2022-11-12T14:25:12.738Z,3.60
2022-11-12T14:27:57.754Z,3.58
2022-11-12T14:30:44.835Z,3.67
2022-11-12T14:33:32.115Z,3.45
2022-11-12T14:36:21.255Z,3.72
2022-11-12T14:39:07.194Z,4.00
2022-11-12T14:41:54.439Z,4.15
2022-11-12T14:44:39.636Z,4.00
2022-11-12T14:47:25.081Z,3.72
2022-11-12T14:50:41.047Z,3.83
2022-11-12T14:53:35.828Z,3.70
2022-11-12T14:56:35.566Z,4.70
2022-11-12T14:59:21.732Z,5.55
2022-11-12T15:02:31.648Z,6.20
2022-11-12T15:05:20.906Z,9.98
2022-11-12T15:08:11.412Z,13.38
2022-11-12T15:10:58.040Z,14.63
2022-11-12T15:13:44.167Z,13.93
2022-11-12T15:16:34.333Z,16.35
2022-11-12T15:19:25.006Z,17.40
2022-11-12T15:22:22.547Z,23.48
2022-11-12T15:25:23.044Z,22.20
2022-11-12T15:28:22.676Z,18.52
2022-11-12T15:31:21.588Z,17.13
2022-11-12T15:34:31.319Z,17.70
2022-11-12T15:37:22.972Z,15.07
2022-11-12T15:40:16.007Z,13.02
2022-11-12T15:43:02.145Z,11.43
2022-11-12T15:45:49.131Z,12.85
2022-11-12T15:48:34.544Z,13.10
2022-11-12T15:51:19.904Z,12.60
2022-11-12T15:54:05.613Z,14.25
2022-11-12T15:56:51.335Z,15.63
2022-11-12T15:59:36.381Z,13.88
2022-11-12T16:02:21.920Z,13.43
2022-11-12T16:05:13.807Z,11.98
2022-11-12T16:07:59.678Z,10.40
2022-11-12T16:10:47.085Z,9.40
2022-11-12T16:13:33.322Z,9.75
2022-11-12T16:16:18.816Z,13.68
2022-11-12T16:19:04.332Z,22.90
2022-11-12T16:21:49.918Z,36.35
2022-11-12T16:24:35.186Z,35.60
2022-11-12T16:27:22.636Z,33.10
2022-11-12T16:30:17.596Z,30.45
2022-11-12T16:33:02.645Z,22.60
2022-11-12T16:35:48.042Z,25.33
2022-11-12T16:38:33.515Z,25.63
2022-11-12T16:41:18.856Z,35.45
2022-11-12T16:44:04.210Z,37.95
2022-11-12T16:46:49.666Z,35.75
2022-11-12T16:49:38.637Z,29.52
2022-11-12T16:52:24.097Z,24.33
2022-11-12T16:55:10.126Z,26.52
2022-11-12T16:57:55.672Z,25.38
2022-11-12T17:00:44.380Z,23.60
2022-11-12T17:03:30.037Z,17.40
2022-11-12T17:06:16.069Z,16.45
2022-11-12T17:09:01.216Z,14.95
2022-11-12T17:11:46.523Z,14.77
2022-11-12T17:14:32.334Z,19.67
2022-11-12T17:17:17.359Z,23.20
2022-11-12T17:20:35.577Z,20.67
2022-11-12T17:23:20.653Z,18.27
2022-11-12T17:26:09.820Z,17.45
2022-11-12T17:29:01.086Z,15.68
2022-11-12T17:31:49.460Z,16.77
2022-11-12T17:34:34.864Z,17.55
2022-11-12T17:37:20.232Z,15.38
2022-11-12T17:40:06.532Z,18.25
2022-11-12T17:42:51.656Z,10.05
2022-11-12T17:45:37.039Z,7.53
2022-11-12T17:48:23.547Z,6.88
2022-11-12T17:51:14.633Z,13.90
2022-11-12T17:53:59.761Z,13.52
2022-11-12T17:56:45.253Z,15.77
2022-11-12T17:59:30.709Z,15.35
2022-11-12T18:02:16.073Z,18.58
2022-11-12T18:05:01.603Z,13.60
2022-11-12T18:07:47.041Z,12.55
2022-11-12T18:10:32.817Z,12.23
2022-11-12T18:13:18.320Z,12.88
2022-11-12T18:16:14.893Z,18.77
2022-11-12T18:19:00.133Z,20.20
2022-11-12T18:21:45.499Z,21.83
2022-11-12T18:24:31.104Z,24.08
2022-11-12T18:27:16.697Z,27.45
2022-11-12T18:30:02.273Z,28.58
2022-11-12T18:32:47.393Z,27.35
2022-11-12T18:35:32.850Z,25.73
2022-11-12T18:38:18.259Z,26.08
2022-11-12T18:41:06.906Z,25.83
2022-11-12T18:46:38.448Z,28.70
2022-11-12T18:49:23.882Z,31.10
2022-11-12T18:52:09.368Z,36.75
2022-11-12T18:54:54.656Z,31.50
2022-11-12T18:57:40.162Z,29.45
2022-11-12T19:00:25.695Z,29.70
2022-11-12T19:03:11.148Z,21.98
2022-11-12T19:06:01.273Z,17.48
2022-11-12T19:08:46.853Z,18.25
2022-11-12T19:11:32.007Z,17.40
2022-11-12T19:14:17.445Z,17.75
2022-11-12T19:17:02.867Z,17.58
2022-11-12T19:19:48.625Z,20.95
2022-11-12T19:22:33.850Z,17.00
2022-11-12T19:25:19.539Z,13.48
2022-11-12T19:28:05.049Z,15.07
2022-11-12T19:30:50.313Z,15.27
2022-11-12T19:33:35.702Z,15.43
2022-11-12T19:36:23.889Z,13.95
2022-11-12T19:39:08.956Z,13.80
2022-11-12T19:41:54.308Z,37.60
2022-11-12T19:44:39.668Z,186.35
2022-11-12T19:47:25.140Z,74.28
2022-11-12T19:50:10.644Z,25.65
2022-11-12T19:52:56.300Z,18.38
2022-11-12T19:55:41.851Z,15.05
2022-11-12T19:58:27.530Z,14.13
2022-11-12T20:01:16.305Z,22.17
2022-11-12T20:04:01.683Z,14.38
2022-11-12T20:06:47.276Z,14.35
2022-11-12T20:09:32.470Z,11.40
2022-11-12T20:12:17.917Z,10.05
2022-11-12T20:15:03.521Z,10.68
2022-11-12T20:17:49.116Z,11.85
2022-11-12T20:20:34.445Z,13.75
2022-11-12T20:23:20.045Z,15.80
2022-11-12T20:26:11.174Z,14.38
2022-11-12T20:28:56.757Z,15.10
2022-11-12T20:31:42.224Z,14.60
2022-11-12T20:34:27.419Z,16.63
2022-11-12T20:37:12.887Z,17.40
2022-11-12T20:39:58.822Z,18.40
2022-11-12T20:42:45.716Z,17.42
2022-11-12T20:45:31.299Z,17.15
2022-11-12T20:48:16.986Z,16.02
2022-11-12T20:51:23.592Z,14.07
2022-11-12T20:54:10.522Z,14.40
2022-11-12T20:56:56.155Z,13.75
2022-11-12T20:59:43.109Z,11.73
2022-11-12T21:02:28.498Z,11.00
2022-11-12T21:05:13.942Z,10.02
2022-11-12T21:07:59.354Z,11.27
2022-11-12T21:10:49.318Z,8.15
2022-11-12T21:13:36.357Z,10.68
2022-11-12T21:16:21.978Z,10.73
2022-11-12T21:19:07.430Z,9.88
2022-11-12T21:21:53.302Z,10.30
2022-11-12T21:24:39.044Z,9.93
2022-11-12T21:27:24.703Z,11.82
2022-11-12T21:30:10.751Z,12.70
2022-11-12T21:32:56.222Z,12.43
2022-11-12T21:35:41.646Z,12.95
2022-11-12T21:38:28.589Z,12.90
2022-11-12T21:41:16.511Z,12.07
2022-11-12T21:44:01.960Z,13.00
2022-11-12T21:46:47.286Z,13.18
2022-11-12T21:49:32.625Z,12.63
2022-11-12T21:52:18.124Z,11.95
2022-11-12T21:55:03.992Z,16.33
2022-11-12T21:57:49.164Z,17.08
2022-11-12T22:00:42.783Z,15.68
2022-11-12T22:03:30.951Z,16.98
2022-11-12T22:06:17.277Z,13.48
2022-11-12T22:09:03.663Z,12.40
2022-11-12T22:11:48.808Z,12.93
2022-11-12T22:14:34.143Z,12.50
2022-11-12T22:17:19.694Z,10.65
2022-11-12T22:20:05.556Z,11.20
2022-11-12T22:22:51.869Z,11.35
2022-11-12T22:25:37.188Z,12.07
2022-11-12T22:28:22.569Z,11.45
2022-11-12T22:31:12.988Z,11.30
2022-11-12T22:34:01.061Z,10.65
2022-11-12T22:36:46.403Z,10.68
2022-11-12T22:39:31.843Z,10.35
2022-11-12T22:42:17.256Z,11.15
2022-11-12T22:45:02.477Z,10.35
2022-11-12T22:47:48.237Z,10.55
2022-11-12T22:50:33.662Z,9.98
2022-11-12T22:53:19.067Z,10.23
2022-11-12T22:56:07.148Z,9.05
2022-11-12T22:58:52.837Z,5.97
2022-11-12T23:01:38.248Z,9.02
2022-11-12T23:04:23.597Z,12.07
2022-11-12T23:07:08.970Z,10.32
2022-11-12T23:09:54.443Z,10.00
2022-11-12T23:12:39.801Z,10.75
2022-11-12T23:15:29.027Z,9.32
2022-11-12T23:18:14.378Z,11.10
2022-11-12T23:21:10.014Z,11.13
2022-11-12T23:23:59.823Z,9.65
2022-11-12T23:26:45.024Z,9.13
2022-11-12T23:29:30.417Z,7.90
2022-11-12T23:32:15.759Z,8.23
2022-11-12T23:35:01.272Z,8.70
2022-11-12T23:37:46.621Z,9.75
2022-11-12T23:40:31.904Z,9.63
2022-11-12T23:43:17.304Z,10.02
2022-11-12T23:46:02.666Z,4.75
2022-11-12T23:48:48.178Z,5.25
2022-11-12T23:51:33.473Z,4.63
2022-11-12T23:54:18.791Z,4.28
2022-11-12T23:57:04.267Z,3.78
2022-11-12T23:59:49.723Z,2.90
